Starlake, Wisconsin
Current Conditions -  °F | °C
As of 7:15 PM on Friday 28 Nov 2014 (Local Time) from KEGV Reporting Station
Overcast Overcast  
Wind Chill: 13°   Ceiling: 3900
Heat Index: 13°   Visibility: 10mi
Dew Point:   Wind: 0mph
Humidity: 84%   Direction: NA
Pressure: 29.86"   Gusts: NA
Location:  46.0405°N, 89.4656°W
Report Text: KEGV 290115Z AUTO 00000KT 10SM BKN039 OVC090 M10/M13 A2986 RMK AO2 T11051128
Loading
Personal Weather Stations






























Interactive Weather Map New forecast layout! Learn more

10-Day Weather Forecast

Advertisements
Track Severe Weather on mobile